sensor_id;sensor_type;location;lat;lon;timestamp;pressure;altitude;pressure_sealevel;temperature;humidity
12182;BME280;6154;51.550;12.138;2023-08-12T00:02:17;100793.59;;;25.45;43.91
12182;BME280;6154;51.550;12.138;2023-08-12T00:04:46;100793.59;;;25.45;43.78
12182;BME280;6154;51.550;12.138;2023-08-12T00:07:15;100794.97;;;25.41;43.75
12182;BME280;6154;51.550;12.138;2023-08-12T00:09:43;100795.81;;;25.41;43.66
12182;BME280;6154;51.550;12.138;2023-08-12T00:12:11;100787.88;;;25.40;43.68
12182;BME280;6154;51.550;12.138;2023-08-12T00:14:39;100798.72;;;25.40;43.89
12182;BME280;6154;51.550;12.138;2023-08-12T00:17:07;100789.91;;;25.38;44.42
12182;BME280;6154;51.550;12.138;2023-08-12T00:19:36;100777.38;;;25.37;44.60
12182;BME280;6154;51.550;12.138;2023-08-12T00:22:05;100784.81;;;25.35;44.66
12182;BME280;6154;51.550;12.138;2023-08-12T00:24:34;100782.28;;;25.33;44.72
12182;BME280;6154;51.550;12.138;2023-08-12T00:27:02;100781.94;;;25.36;44.46
12182;BME280;6154;51.550;12.138;2023-08-12T00:29:30;100787.19;;;25.38;44.04
12182;BME280;6154;51.550;12.138;2023-08-12T00:31:58;100780.59;;;25.32;44.20
12182;BME280;6154;51.550;12.138;2023-08-12T00:34:27;100782.63;;;25.30;44.27
12182;BME280;6154;51.550;12.138;2023-08-12T00:36:55;100780.44;;;25.26;44.69
12182;BME280;6154;51.550;12.138;2023-08-12T00:39:24;100774.31;;;25.23;44.47
12182;BME280;6154;51.550;12.138;2023-08-12T00:41:53;100781.12;;;25.19;44.78
12182;BME280;6154;51.550;12.138;2023-08-12T00:44:21;100777.56;;;25.19;44.10
12182;BME280;6154;51.550;12.138;2023-08-12T00:46:50;100768.22;;;25.21;43.95
12182;BME280;6154;51.550;12.138;2023-08-12T00:49:18;100763.84;;;25.20;44.73
12182;BME280;6154;51.550;12.138;2023-08-12T00:51:49;100753.66;;;25.14;44.96
12182;BME280;6154;51.550;12.138;2023-08-12T00:54:17;100745.91;;;25.11;45.27
12182;BME280;6154;51.550;12.138;2023-08-12T00:56:51;100747.25;;;25.07;45.21
12182;BME280;6154;51.550;12.138;2023-08-12T00:59:21;100755.03;;;25.10;44.35
12182;BME280;6154;51.550;12.138;2023-08-12T01:01:50;100747.59;;;25.12;44.15
12182;BME280;6154;51.550;12.138;2023-08-12T01:04:20;100738.25;;;25.15;44.30
12182;BME280;6154;51.550;12.138;2023-08-12T01:06:50;100737.28;;;25.16;44.10
12182;BME280;6154;51.550;12.138;2023-08-12T01:09:19;100740.12;;;25.14;44.48
12182;BME280;6154;51.550;12.138;2023-08-12T01:11:52;100741.84;;;25.15;44.52
12182;BME280;6154;51.550;12.138;2023-08-12T01:14:23;100735.53;;;25.23;45.05
12182;BME280;6154;51.550;12.138;2023-08-12T01:16:57;100736.56;;;25.22;44.68
12182;BME280;6154;51.550;12.138;2023-08-12T01:19:30;100733.84;;;25.22;44.79
12182;BME280;6154;51.550;12.138;2023-08-12T01:22:03;100730.97;;;25.23;44.74
12182;BME280;6154;51.550;12.138;2023-08-12T01:24:36;100730.47;;;25.20;44.39
12182;BME280;6154;51.550;12.138;2023-08-12T01:27:04;100725.91;;;25.20;44.86
12182;BME280;6154;51.550;12.138;2023-08-12T01:29:34;100725.53;;;25.23;44.61
12182;BME280;6154;51.550;12.138;2023-08-12T01:32:09;100724.22;;;25.28;44.59
12182;BME280;6154;51.550;12.138;2023-08-12T01:34:46;100723.19;;;25.29;44.58
12182;BME280;6154;51.550;12.138;2023-08-12T01:37:20;100731.31;;;25.29;44.21
12182;BME280;6154;51.550;12.138;2023-08-12T01:39:54;100736.38;;;25.32;44.35
12182;BME280;6154;51.550;12.138;2023-08-12T01:42:23;100733.84;;;25.30;44.83
12182;BME280;6154;51.550;12.138;2023-08-12T01:44:54;100735.72;;;25.30;44.80
12182;BME280;6154;51.550;12.138;2023-08-12T01:47:24;100731.66;;;25.26;44.69
12182;BME280;6154;51.550;12.138;2023-08-12T01:49:52;100727.59;;;25.21;44.55
12182;BME280;6154;51.550;12.138;2023-08-12T01:52:23;100729.47;;;25.21;44.84
12182;BME280;6154;51.550;12.138;2023-08-12T01:54:52;100725.06;;;25.20;44.70
12182;BME280;6154;51.550;12.138;2023-08-12T01:57:21;100720.16;;;25.15;44.69
12182;BME280;6154;51.550;12.138;2023-08-12T01:59:49;100715.91;;;25.13;44.46
12182;BME280;6154;51.550;12.138;2023-08-12T02:02:17;100712.91;;;25.08;44.93
12182;BME280;6154;51.550;12.138;2023-08-12T02:04:46;100704.41;;;25.03;45.08
12182;BME280;6154;51.550;12.138;2023-08-12T02:07:14;100715.75;;;24.98;45.37
12182;BME280;6154;51.550;12.138;2023-08-12T02:09:42;100712.69;;;24.85;45.36
12182;BME280;6154;51.550;12.138;2023-08-12T02:12:13;100705.94;;;24.81;45.07
12182;BME280;6154;51.550;12.138;2023-08-12T02:14:41;100706.94;;;24.88;45.44
12182;BME280;6154;51.550;12.138;2023-08-12T02:17:09;100706.78;;;24.81;45.70
12182;BME280;6154;51.550;12.138;2023-08-12T02:19:37;100704.78;;;24.75;46.05
12182;BME280;6154;51.550;12.138;2023-08-12T02:22:05;100698.81;;;24.72;46.19
12182;BME280;6154;51.550;12.138;2023-08-12T02:24:34;100694.78;;;24.68;46.14
12182;BME280;6154;51.550;12.138;2023-08-12T02:27:02;100691.41;;;24.65;46.20
12182;BME280;6154;51.550;12.138;2023-08-12T02:29:31;100694.44;;;24.62;45.86
12182;BME280;6154;51.550;12.138;2023-08-12T02:32:00;100688.34;;;24.60;45.91
12182;BME280;6154;51.550;12.138;2023-08-12T02:34:28;100682.44;;;24.57;46.29
12182;BME280;6154;51.550;12.138;2023-08-12T02:36:56;100680.75;;;24.56;45.52
12182;BME280;6154;51.550;12.138;2023-08-12T02:39:24;100676.66;;;24.60;45.42
12182;BME280;6154;51.550;12.138;2023-08-12T02:41:52;100673.78;;;24.61;45.95
12182;BME280;6154;51.550;12.138;2023-08-12T02:44:21;100670.06;;;24.62;46.28
12182;BME280;6154;51.550;12.138;2023-08-12T02:46:53;100668.38;;;24.61;46.16
12182;BME280;6154;51.550;12.138;2023-08-12T02:49:21;100668.06;;;24.56;46.57
12182;BME280;6154;51.550;12.138;2023-08-12T02:51:49;100664.50;;;24.48;47.34
12182;BME280;6154;51.550;12.138;2023-08-12T02:54:17;100670.94;;;24.47;47.21
12182;BME280;6154;51.550;12.138;2023-08-12T02:56:46;100664.97;;;24.43;47.44
12182;BME280;6154;51.550;12.138;2023-08-12T02:59:14;100652.81;;;24.39;47.36
12182;BME280;6154;51.550;12.138;2023-08-12T03:01:42;100651.97;;;24.39;47.51
12182;BME280;6154;51.550;12.138;2023-08-12T03:04:12;100655.84;;;24.44;47.55
12182;BME280;6154;51.550;12.138;2023-08-12T03:06:40;100649.44;;;24.37;48.41
12182;BME280;6154;51.550;12.138;2023-08-12T03:09:08;100655.34;;;24.41;47.12
12182;BME280;6154;51.550;12.138;2023-08-12T03:11:36;100644.69;;;24.47;46.25
12182;BME280;6154;51.550;12.138;2023-08-12T03:14:05;100652.31;;;24.52;46.25
12182;BME280;6154;51.550;12.138;2023-08-12T03:16:34;100637.25;;;24.57;46.22
12182;BME280;6154;51.550;12.138;2023-08-12T03:19:02;100641.31;;;24.61;46.51
12182;BME280;6154;51.550;12.138;2023-08-12T03:21:32;100637.25;;;24.65;46.61
12182;BME280;6154;51.550;12.138;2023-08-12T03:24:01;100628.13;;;24.67;46.37
12182;BME280;6154;51.550;12.138;2023-08-12T03:26:29;100637.09;;;24.67;46.32
12182;BME280;6154;51.550;12.138;2023-08-12T03:28:58;100633.53;;;24.67;47.54
12182;BME280;6154;51.550;12.138;2023-08-12T03:31:26;100635.88;;;24.61;48.13
12182;BME280;6154;51.550;12.138;2023-08-12T03:33:54;100638.94;;;24.50;47.48
12182;BME280;6154;51.550;12.138;2023-08-12T03:36:23;100639.78;;;24.59;46.69
12182;BME280;6154;51.550;12.138;2023-08-12T03:38:52;100638.41;;;24.63;46.16
12182;BME280;6154;51.550;12.138;2023-08-12T03:41:21;100635.22;;;24.68;46.40
12182;BME280;6154;51.550;12.138;2023-08-12T03:43:50;100643.66;;;24.73;46.78
12182;BME280;6154;51.550;12.138;2023-08-12T03:46:18;100637.94;;;24.76;46.78
12182;BME280;6154;51.550;12.138;2023-08-12T03:48:47;100638.78;;;24.76;47.31
12182;BME280;6154;51.550;12.138;2023-08-12T03:51:15;100640.47;;;24.77;47.86
12182;BME280;6154;51.550;12.138;2023-08-12T03:53:43;100632.50;;;24.76;47.55
12182;BME280;6154;51.550;12.138;2023-08-12T03:56:13;100633.19;;;24.78;47.44
12182;BME280;6154;51.550;12.138;2023-08-12T03:58:43;100629.63;;;24.77;47.41
12182;BME280;6154;51.550;12.138;2023-08-12T04:01:11;100630.47;;;24.78;47.36
12182;BME280;6154;51.550;12.138;2023-08-12T04:03:40;100624.69;;;24.81;47.23
12182;BME280;6154;51.550;12.138;2023-08-12T04:06:08;100630.59;;;24.84;47.01
12182;BME280;6154;51.550;12.138;2023-08-12T04:08:36;100620.47;;;24.86;47.12
12182;BME280;6154;51.550;12.138;2023-08-12T04:11:05;100623.00;;;24.88;46.47
12182;BME280;6154;51.550;12.138;2023-08-12T04:13:34;100628.25;;;24.89;46.10
12182;BME280;6154;51.550;12.138;2023-08-12T04:16:03;100630.94;;;24.89;46.74
12182;BME280;6154;51.550;12.138;2023-08-12T04:18:31;100625.69;;;24.96;46.94
12182;BME280;6154;51.550;12.138;2023-08-12T04:20:59;100632.63;;;24.99;46.95
12182;BME280;6154;51.550;12.138;2023-08-12T04:23:28;100631.44;;;25.01;47.12
12182;BME280;6154;51.550;12.138;2023-08-12T04:25:56;100622.97;;;25.04;47.19
12182;BME280;6154;51.550;12.138;2023-08-12T04:28:25;100629.75;;;25.00;47.30
12182;BME280;6154;51.550;12.138;2023-08-12T04:30:56;100627.22;;;24.99;47.62
12182;BME280;6154;51.550;12.138;2023-08-12T04:33:25;100626.00;;;25.17;47.34
12182;BME280;6154;51.550;12.138;2023-08-12T04:35:53;100626.50;;;25.21;47.42
12182;BME280;6154;51.550;12.138;2023-08-12T04:38:22;100623.28;;;25.26;47.05
12182;BME280;6154;51.550;12.138;2023-08-12T04:40:52;100622.56;;;25.32;47.10
12182;BME280;6154;51.550;12.138;2023-08-12T04:43:21;100622.34;;;25.41;47.12
12182;BME280;6154;51.550;12.138;2023-08-12T04:45:49;100621.47;;;25.49;47.05
12182;BME280;6154;51.550;12.138;2023-08-12T04:48:19;100622.28;;;25.58;47.15
12182;BME280;6154;51.550;12.138;2023-08-12T04:50:47;100617.81;;;25.65;47.51
12182;BME280;6154;51.550;12.138;2023-08-12T04:53:16;100615.94;;;25.73;47.25
12182;BME280;6154;51.550;12.138;2023-08-12T04:55:44;100615.06;;;25.81;47.36
12182;BME280;6154;51.550;12.138;2023-08-12T04:58:13;100619.09;;;25.85;47.33
12182;BME280;6154;51.550;12.138;2023-08-12T05:00:42;100628.53;;;25.97;47.29
12182;BME280;6154;51.550;12.138;2023-08-12T05:03:10;100627.28;;;26.08;47.49
12182;BME280;6154;51.550;12.138;2023-08-12T05:05:40;100632.75;;;26.23;47.32
12182;BME280;6154;51.550;12.138;2023-08-12T05:08:08;100625.59;;;26.30;47.41
12182;BME280;6154;51.550;12.138;2023-08-12T05:10:37;100628.44;;;26.36;47.20
12182;BME280;6154;51.550;12.138;2023-08-12T05:13:05;100629.59;;;26.42;47.41
12182;BME280;6154;51.550;12.138;2023-08-12T05:15:34;100629.72;;;26.49;47.31
12182;BME280;6154;51.550;12.138;2023-08-12T05:18:04;100624.56;;;26.54;47.53
12182;BME280;6154;51.550;12.138;2023-08-12T05:20:33;100623.84;;;26.60;47.46
12182;BME280;6154;51.550;12.138;2023-08-12T05:23:02;100621.22;;;26.67;47.16
12182;BME280;6154;51.550;12.138;2023-08-12T05:25:31;100625.38;;;26.77;47.29
12182;BME280;6154;51.550;12.138;2023-08-12T05:27:59;100622.94;;;26.82;48.01
12182;BME280;6154;51.550;12.138;2023-08-12T05:30:27;100619.94;;;26.92;47.51
12182;BME280;6154;51.550;12.138;2023-08-12T05:32:56;100627.81;;;27.02;47.68
12182;BME280;6154;51.550;12.138;2023-08-12T05:35:24;100620.84;;;27.07;47.98
12182;BME280;6154;51.550;12.138;2023-08-12T05:37:52;100621.88;;;27.06;49.53
12182;BME280;6154;51.550;12.138;2023-08-12T05:40:22;100621.88;;;27.06;49.77
12182;BME280;6154;51.550;12.138;2023-08-12T05:42:50;100624.88;;;27.26;48.64
12182;BME280;6154;51.550;12.138;2023-08-12T05:45:18;100620.91;;;27.14;50.00
12182;BME280;6154;51.550;12.138;2023-08-12T05:47:47;100617.81;;;27.32;48.64
12182;BME280;6154;51.550;12.138;2023-08-12T05:50:15;100611.16;;;27.34;49.48
12182;BME280;6154;51.550;12.138;2023-08-12T05:52:43;100608.62;;;27.47;48.53
12182;BME280;6154;51.550;12.138;2023-08-12T05:55:12;100609.66;;;27.46;48.94
12182;BME280;6154;51.550;12.138;2023-08-12T05:57:41;100612.66;;;27.52;48.89
12182;BME280;6154;51.550;12.138;2023-08-12T06:00:10;100621.34;;;27.62;49.08
12182;BME280;6154;51.550;12.138;2023-08-12T06:02:40;100606.50;;;27.64;48.76
12182;BME280;6154;51.550;12.138;2023-08-12T06:05:08;100610.94;;;27.80;48.36
12182;BME280;6154;51.550;12.138;2023-08-12T06:07:39;100603.09;;;27.92;48.01
12182;BME280;6154;51.550;12.138;2023-08-12T06:10:08;100601.34;;;27.84;48.75
12182;BME280;6154;51.550;12.138;2023-08-12T06:12:36;100604.50;;;27.66;49.05
12182;BME280;6154;51.550;12.138;2023-08-12T06:15:06;100606.94;;;27.97;47.87
12182;BME280;6154;51.550;12.138;2023-08-12T06:17:35;100616.00;;;28.04;48.23
12182;BME280;6154;51.550;12.138;2023-08-12T06:20:03;100616.28;;;28.10;47.81
12182;BME280;6154;51.550;12.138;2023-08-12T06:22:31;100614.13;;;28.26;47.57
12182;BME280;6154;51.550;12.138;2023-08-12T06:25:00;100607.78;;;28.41;47.25
12182;BME280;6154;51.550;12.138;2023-08-12T06:27:28;100607.97;;;28.60;46.76
12182;BME280;6154;51.550;12.138;2023-08-12T06:29:56;100609.09;;;28.73;46.94
12182;BME280;6154;51.550;12.138;2023-08-12T06:32:26;100599.81;;;28.88;46.78
12182;BME280;6154;51.550;12.138;2023-08-12T06:34:54;100603.88;;;28.99;47.09
12182;BME280;6154;51.550;12.138;2023-08-12T06:37:22;100606.94;;;28.89;47.67
12182;BME280;6154;51.550;12.138;2023-08-12T06:39:50;100608.75;;;29.10;47.22
12182;BME280;6154;51.550;12.138;2023-08-12T06:42:19;100605.50;;;29.35;46.96
12182;BME280;6154;51.550;12.138;2023-08-12T06:44:54;100609.53;;;29.39;46.96
12182;BME280;6154;51.550;12.138;2023-08-12T06:47:23;100607.34;;;29.62;46.49
12182;BME280;6154;51.550;12.138;2023-08-12T06:49:54;100604.06;;;29.80;46.24
12182;BME280;6154;51.550;12.138;2023-08-12T06:52:22;100606.37;;;29.76;46.35
12182;BME280;6154;51.550;12.138;2023-08-12T06:54:51;100602.41;;;29.92;46.02
12182;BME280;6154;51.550;12.138;2023-08-12T06:57:19;100603.69;;;30.03;45.96
12182;BME280;6154;51.550;12.138;2023-08-12T06:59:47;100607.47;;;30.02;45.98
12182;BME280;6154;51.550;12.138;2023-08-12T07:02:15;100606.69;;;30.08;45.92
12182;BME280;6154;51.550;12.138;2023-08-12T07:04:43;100597.00;;;30.12;45.87
12182;BME280;6154;51.550;12.138;2023-08-12T07:07:14;100601.22;;;30.08;45.89
12182;BME280;6154;51.550;12.138;2023-08-12T07:09:42;100597.84;;;30.13;45.89
12182;BME280;6154;51.550;12.138;2023-08-12T07:12:10;100582.03;;;30.01;46.27
12182;BME280;6154;51.550;12.138;2023-08-12T07:14:42;100572.22;;;30.14;46.04
12182;BME280;6154;51.550;12.138;2023-08-12T07:17:10;100574.53;;;30.23;45.88
12182;BME280;6154;51.550;12.138;2023-08-12T07:19:38;100575.59;;;30.29;45.81
12182;BME280;6154;51.550;12.138;2023-08-12T07:22:06;100569.28;;;30.42;45.75
12182;BME280;6154;51.550;12.138;2023-08-12T07:24:36;100580.22;;;30.42;45.39
12182;BME280;6154;51.550;12.138;2023-08-12T07:27:05;100590.31;;;30.48;45.62
12182;BME280;6154;51.550;12.138;2023-08-12T07:29:34;100594.97;;;30.67;45.17
12182;BME280;6154;51.550;12.138;2023-08-12T07:32:02;100597.84;;;30.85;44.97
12182;BME280;6154;51.550;12.138;2023-08-12T07:34:30;100593.63;;;30.96;44.94
12182;BME280;6154;51.550;12.138;2023-08-12T07:37:01;100595.34;;;30.84;45.37
12182;BME280;6154;51.550;12.138;2023-08-12T07:39:29;100593.03;;;30.81;45.21
12182;BME280;6154;51.550;12.138;2023-08-12T07:41:58;100590.88;;;31.03;44.98
12182;BME280;6154;51.550;12.138;2023-08-12T07:44:27;100588.94;;;31.16;44.78
12182;BME280;6154;51.550;12.138;2023-08-12T07:46:55;100591.91;;;31.22;44.61
12182;BME280;6154;51.550;12.138;2023-08-12T07:49:23;100586.44;;;31.22;44.45
12182;BME280;6154;51.550;12.138;2023-08-12T07:51:51;100598.22;;;31.22;44.39
12182;BME280;6154;51.550;12.138;2023-08-12T07:54:19;100615.28;;;31.04;44.65
12182;BME280;6154;51.550;12.138;2023-08-12T07:56:47;100615.28;;;31.04;44.60
12182;BME280;6154;51.550;12.138;2023-08-12T07:59:17;100605.44;;;30.97;44.78
12182;BME280;6154;51.550;12.138;2023-08-12T08:01:45;100609.22;;;30.89;44.96
12182;BME280;6154;51.550;12.138;2023-08-12T08:04:13;100612.16;;;30.81;45.26
12182;BME280;6154;51.550;12.138;2023-08-12T08:06:41;100622.69;;;30.71;45.54
12182;BME280;6154;51.550;12.138;2023-08-12T08:09:09;100622.25;;;30.47;46.42
12182;BME280;6154;51.550;12.138;2023-08-12T08:11:37;100625.81;;;30.54;46.04
12182;BME280;6154;51.550;12.138;2023-08-12T08:14:05;100626.44;;;30.23;46.56
12182;BME280;6154;51.550;12.138;2023-08-12T08:16:35;100619.50;;;30.21;46.96
12182;BME280;6154;51.550;12.138;2023-08-12T08:19:04;100627.47;;;30.22;47.18
12182;BME280;6154;51.550;12.138;2023-08-12T08:21:38;100616.34;;;30.44;46.86
12182;BME280;6154;51.550;12.138;2023-08-12T08:24:07;100599.97;;;30.30;47.44
12182;BME280;6154;51.550;12.138;2023-08-12T08:26:38;100591.34;;;30.33;47.52
12182;BME280;6154;51.550;12.138;2023-08-12T08:29:07;100596.81;;;30.33;47.49
12182;BME280;6154;51.550;12.138;2023-08-12T08:31:37;100601.88;;;30.37;47.45
12182;BME280;6154;51.550;12.138;2023-08-12T08:34:06;100612.16;;;30.41;47.60
12182;BME280;6154;51.550;12.138;2023-08-12T08:36:34;100617.41;;;30.62;47.37
12182;BME280;6154;51.550;12.138;2023-08-12T08:39:03;100615.34;;;30.71;47.48
12182;BME280;6154;51.550;12.138;2023-08-12T08:41:31;100616.19;;;30.78;47.62
12182;BME280;6154;51.550;12.138;2023-08-12T08:44:02;100607.94;;;30.85;47.61
12182;BME280;6154;51.550;12.138;2023-08-12T08:46:31;100601.66;;;30.91;47.57
12182;BME280;6154;51.550;12.138;2023-08-12T08:49:00;100606.28;;;30.97;47.31
12182;BME280;6154;51.550;12.138;2023-08-12T08:51:30;100610.91;;;30.97;47.58
12182;BME280;6154;51.550;12.138;2023-08-12T08:53:58;100605.19;;;31.05;47.67
12182;BME280;6154;51.550;12.138;2023-08-12T08:56:31;100606.22;;;31.10;47.60
12182;BME280;6154;51.550;12.138;2023-08-12T08:59:03;100604.50;;;31.16;47.72
12182;BME280;6154;51.550;12.138;2023-08-12T09:01:32;100613.34;;;31.25;47.85
12182;BME280;6154;51.550;12.138;2023-08-12T09:04:03;100609.31;;;31.40;47.53
12182;BME280;6154;51.550;12.138;2023-08-12T09:06:31;100606.97;;;31.51;47.88
12182;BME280;6154;51.550;12.138;2023-08-12T09:09:01;100602.69;;;31.68;47.37
12182;BME280;6154;51.550;12.138;2023-08-12T09:11:30;100597.31;;;31.86;47.23
12182;BME280;6154;51.550;12.138;2023-08-12T09:13:58;100592.16;;;32.03;47.22
12182;BME280;6154;51.550;12.138;2023-08-12T09:16:26;100604.50;;;32.19;46.94
12182;BME280;6154;51.550;12.138;2023-08-12T09:18:55;100604.44;;;32.32;47.05
12182;BME280;6154;51.550;12.138;2023-08-12T09:21:25;100606.44;;;32.43;46.89
12182;BME280;6154;51.550;12.138;2023-08-12T09:23:54;100609.38;;;32.48;46.73
12182;BME280;6154;51.550;12.138;2023-08-12T09:26:22;100621.41;;;32.47;46.65
12182;BME280;6154;51.550;12.138;2023-08-12T09:28:51;100612.72;;;32.50;46.54
12182;BME280;6154;51.550;12.138;2023-08-12T09:31:23;100612.25;;;32.53;46.46
12182;BME280;6154;51.550;12.138;2023-08-12T09:33:52;100603.75;;;32.62;46.56
12182;BME280;6154;51.550;12.138;2023-08-12T09:36:21;100602.56;;;32.76;46.28
12182;BME280;6154;51.550;12.138;2023-08-12T09:38:51;100593.66;;;32.80;46.17
12182;BME280;6154;51.550;12.138;2023-08-12T09:41:19;100599.72;;;32.89;45.98
12182;BME280;6154;51.550;12.138;2023-08-12T09:43:51;100596.34;;;32.87;45.90
12182;BME280;6154;51.550;12.138;2023-08-12T09:46:21;100594.78;;;32.98;45.80
12182;BME280;6154;51.550;12.138;2023-08-12T09:48:50;100598.88;;;33.07;45.61
12182;BME280;6154;51.550;12.138;2023-08-12T09:51:19;100594.41;;;33.12;45.57
12182;BME280;6154;51.550;12.138;2023-08-12T09:53:48;100599.59;;;33.02;45.58
12182;BME280;6154;51.550;12.138;2023-08-12T09:56:19;100601.84;;;32.87;45.55
12182;BME280;6154;51.550;12.138;2023-08-12T09:58:50;100594.13;;;32.77;45.31
12182;BME280;6154;51.550;12.138;2023-08-12T10:01:21;100590.75;;;32.57;45.48
12182;BME280;6154;51.550;12.138;2023-08-12T10:03:50;100590.84;;;32.44;45.57
12182;BME280;6154;51.550;12.138;2023-08-12T10:06:19;100598.06;;;32.38;45.52
12182;BME280;6154;51.550;12.138;2023-08-12T10:08:48;100596.63;;;32.29;45.50
12182;BME280;6154;51.550;12.138;2023-08-12T10:11:18;100600.25;;;32.23;45.41
12182;BME280;6154;51.550;12.138;2023-08-12T10:13:47;100594.38;;;32.19;45.50
12182;BME280;6154;51.550;12.138;2023-08-12T10:16:19;100593.53;;;32.19;45.59
12182;BME280;6154;51.550;12.138;2023-08-12T10:18:49;100590.16;;;32.17;45.70
12182;BME280;6154;51.550;12.138;2023-08-12T10:21:18;100590.56;;;32.20;45.52
12182;BME280;6154;51.550;12.138;2023-08-12T10:23:46;100577.09;;;32.19;45.46
12182;BME280;6154;51.550;12.138;2023-08-12T10:26:17;100573.53;;;32.18;45.39
12182;BME280;6154;51.550;12.138;2023-08-12T10:28:48;100559.81;;;32.18;45.56
12182;BME280;6154;51.550;12.138;2023-08-12T10:31:21;100576.31;;;32.12;45.52
12182;BME280;6154;51.550;12.138;2023-08-12T10:33:49;100570.03;;;32.04;45.56
12182;BME280;6154;51.550;12.138;2023-08-12T10:36:18;100554.53;;;32.17;45.34
12182;BME280;6154;51.550;12.138;2023-08-12T10:38:47;100545.81;;;32.26;45.26
12182;BME280;6154;51.550;12.138;2023-08-12T10:41:16;100537.78;;;32.38;45.17
12182;BME280;6154;51.550;12.138;2023-08-12T10:43:59;100522.03;;;32.52;45.23
12182;BME280;6154;51.550;12.138;2023-08-12T10:46:30;100523.78;;;32.65;43.94
12182;BME280;6154;51.550;12.138;2023-08-12T10:49:01;100538.59;;;32.82;44.40
12182;BME280;6154;51.550;12.138;2023-08-12T10:51:40;100538.47;;;32.95;43.93
12182;BME280;6154;51.550;12.138;2023-08-12T10:54:22;100535.59;;;33.08;43.22
12182;BME280;6154;51.550;12.138;2023-08-12T10:57:09;100539.22;;;33.39;43.31
12182;BME280;6154;51.550;12.138;2023-08-12T10:59:54;100530.09;;;33.57;42.78
12182;BME280;6154;51.550;12.138;2023-08-12T11:02:26;100535.50;;;33.63;42.84
12182;BME280;6154;51.550;12.138;2023-08-12T11:05:03;100532.69;;;33.82;42.77
12182;BME280;6154;51.550;12.138;2023-08-12T11:07:33;100529.69;;;34.13;43.48
12182;BME280;6154;51.550;12.138;2023-08-12T11:10:10;100527.91;;;34.19;43.72
12182;BME280;6154;51.550;12.138;2023-08-12T11:12:40;100532.34;;;34.32;42.21
12182;BME280;6154;51.550;12.138;2023-08-12T11:15:10;100529.94;;;34.12;41.91
12182;BME280;6154;51.550;12.138;2023-08-12T11:17:40;100525.91;;;34.61;41.37
12182;BME280;6154;51.550;12.138;2023-08-12T11:20:10;100516.94;;;34.89;41.84
12182;BME280;6154;51.550;12.138;2023-08-12T11:22:40;100515.97;;;34.95;42.04
12182;BME280;6154;51.550;12.138;2023-08-12T11:25:10;100502.44;;;34.82;40.87
12182;BME280;6154;51.550;12.138;2023-08-12T11:27:42;100496.88;;;35.17;41.55
12182;BME280;6154;51.550;12.138;2023-08-12T11:30:14;100493.00;;;35.30;40.87
12182;BME280;6154;51.550;12.138;2023-08-12T11:32:43;100484.59;;;35.48;41.99
12182;BME280;6154;51.550;12.138;2023-08-12T11:35:13;100474.16;;;35.67;41.22
12182;BME280;6154;51.550;12.138;2023-08-12T11:37:44;100464.88;;;35.56;40.26
12182;BME280;6154;51.550;12.138;2023-08-12T11:40:16;100460.53;;;35.89;40.31
12182;BME280;6154;51.550;12.138;2023-08-12T11:42:45;100465.38;;;35.98;39.34
12182;BME280;6154;51.550;12.138;2023-08-12T11:45:17;100464.56;;;35.69;38.42
12182;BME280;6154;51.550;12.138;2023-08-12T11:47:46;100462.47;;;35.77;37.93
12182;BME280;6154;51.550;12.138;2023-08-12T11:50:21;100469.00;;;35.87;38.87
12182;BME280;6154;51.550;12.138;2023-08-12T11:52:51;100461.69;;;36.10;40.13
12182;BME280;6154;51.550;12.138;2023-08-12T11:55:20;100449.72;;;36.04;38.16
12182;BME280;6154;51.550;12.138;2023-08-12T11:57:50;100446.66;;;36.01;37.67
12182;BME280;6154;51.550;12.138;2023-08-12T12:00:21;100454.06;;;36.17;38.16
12182;BME280;6154;51.550;12.138;2023-08-12T12:02:52;100442.59;;;36.25;38.04
12182;BME280;6154;51.550;12.138;2023-08-12T12:05:22;100443.94;;;35.72;37.51
12182;BME280;6154;51.550;12.138;2023-08-12T12:07:52;100434.69;;;36.12;39.12
12182;BME280;6154;51.550;12.138;2023-08-12T12:10:25;100429.25;;;36.17;39.43
12182;BME280;6154;51.550;12.138;2023-08-12T12:12:59;100431.78;;;36.18;37.68
12182;BME280;6154;51.550;12.138;2023-08-12T12:15:30;100414.31;;;35.96;39.16
12182;BME280;6154;51.550;12.138;2023-08-12T12:17:58;100415.41;;;35.78;38.41
12182;BME280;6154;51.550;12.138;2023-08-12T12:20:27;100411.22;;;36.09;38.06
12182;BME280;6154;51.550;12.138;2023-08-12T12:22:56;100417.41;;;35.83;38.14
12182;BME280;6154;51.550;12.138;2023-08-12T12:25:24;100421.75;;;35.95;38.05
12182;BME280;6154;51.550;12.138;2023-08-12T12:27:53;100412.28;;;36.25;38.68
12182;BME280;6154;51.550;12.138;2023-08-12T12:30:22;100402.75;;;36.16;37.96
12182;BME280;6154;51.550;12.138;2023-08-12T12:32:51;100407.50;;;36.37;38.02
12182;BME280;6154;51.550;12.138;2023-08-12T12:35:19;100401.06;;;36.70;37.91
12182;BME280;6154;51.550;12.138;2023-08-12T12:37:47;100404.69;;;36.76;37.08
12182;BME280;6154;51.550;12.138;2023-08-12T12:40:16;100396.84;;;37.11;36.84
12182;BME280;6154;51.550;12.138;2023-08-12T12:42:44;100407.59;;;37.35;36.29
12182;BME280;6154;51.550;12.138;2023-08-12T12:45:12;100401.75;;;37.58;36.45
12182;BME280;6154;51.550;12.138;2023-08-12T12:47:41;100398.28;;;38.10;36.69
12182;BME280;6154;51.550;12.138;2023-08-12T12:50:10;100397.84;;;38.29;35.59
12182;BME280;6154;51.550;12.138;2023-08-12T12:52:39;100402.31;;;39.02;36.18
12182;BME280;6154;51.550;12.138;2023-08-12T12:55:10;100404.28;;;39.17;34.34
12182;BME280;6154;51.550;12.138;2023-08-12T12:57:39;100387.97;;;39.36;34.91
12182;BME280;6154;51.550;12.138;2023-08-12T13:00:08;100390.47;;;39.48;33.61
12182;BME280;6154;51.550;12.138;2023-08-12T13:02:41;100387.69;;;39.12;33.17